首页
METAR-TAF:

METAR-TAF

机场 :

贾姆谢德布尔, 印度

纬度: 22-48-49N, 经度: 086-10-05E, 海拔: 146米

当前天气观测

该预报发布于32分钟前的00:00 UTC
静风
温度 32°C
湿度 67%
气压 1002 hPa
能見度: 3000
少量云层高于2000英尺
霾,

METAR: VEJS 170000Z 00000KT 3000 HZ FEW020 32/25 Q1002

时间: 06:02 (00:32 UTC)

预报

该预报发布于1小时和32分钟前的23:00 UTC
预报有效从17日的 00点(UTC)到 17日的 09点(UTC)
风速8节,风向西南
能見度: 3000
少量云层高于2000英尺
散云层高于10000英尺
轻雾
成为
从 17日的 04点(UTC)到 17日的 06点(UTC)
能見度: 5000
成为
从 17日的 08点(UTC)到 17日的 09点(UTC)
风速5节,风向东南
能見度: 3000
散云层高于1500英尺
少量云层高于3000英尺, 积雨云.
多云层高于10000英尺
雷暴, 雨,

TAF: VEJS 162300Z 1700/1709 23008KT 3000 BR FEW020 SCT100 BECMG 1704/1706 5000 HZ BECMG 1708/1709 14005KT 3000 TSRA SCT015 FEW030CB BKN100

超过4000个机场的气象观测和天气预报(METAR&TAF报告)。

可查询的气象台以黄色和红色小点在地图上表示。

将鼠标移到小点上方,可查看气象台名称。

然后点击查看天气观测和预报。

如需切换地图:点击带黑十字的绿色按钮放大地图;点击带横线的绿色按钮缩小地图;或者点击绿色箭头查看邻近地区的地图。


METAR-TAF: